createdAt,value
2019-05-11T00:04:06.650Z,13.41
2019-05-11T00:09:09.120Z,13.36
2019-05-11T00:14:11.595Z,13.41
2019-05-11T00:19:14.043Z,13.14
2019-05-11T00:24:16.522Z,12.87
2019-05-11T00:29:18.980Z,12.84
2019-05-11T00:34:21.440Z,12.77
2019-05-11T00:39:23.904Z,12.82
2019-05-11T00:44:26.374Z,12.77
2019-05-11T00:49:28.848Z,12.77
2019-05-11T00:54:31.318Z,12.91
2019-05-11T00:59:33.825Z,12.81
2019-05-11T01:04:36.284Z,12.73
2019-05-11T01:09:38.684Z,12.71
2019-05-11T01:14:41.150Z,12.73
2019-05-11T01:19:43.615Z,12.82
2019-05-11T01:24:46.148Z,12.71
2019-05-11T01:29:48.622Z,12.63
2019-05-11T01:34:51.082Z,12.63
2019-05-11T01:39:53.560Z,12.60
2019-05-11T01:44:56.040Z,12.67
2019-05-11T01:49:58.498Z,12.76
2019-05-11T01:55:00.966Z,12.79
2019-05-11T02:00:03.462Z,12.82
2019-05-11T02:05:23.857Z,12.88
2019-05-11T02:10:26.309Z,12.84
2019-05-11T02:15:28.791Z,12.79
2019-05-11T02:20:31.269Z,12.89
2019-05-11T02:25:33.699Z,12.83
2019-05-11T02:30:36.162Z,12.91
2019-05-11T02:35:38.625Z,12.95
2019-05-11T02:40:41.078Z,12.96
2019-05-11T02:45:43.533Z,12.86
2019-05-11T02:50:46.004Z,12.88
2019-05-11T02:55:48.496Z,12.67
2019-05-11T03:00:50.940Z,12.64
2019-05-11T03:05:53.394Z,12.70
2019-05-11T03:10:55.849Z,12.69
2019-05-11T03:15:58.309Z,12.69
2019-05-11T03:21:00.777Z,12.74
2019-05-11T03:26:03.251Z,12.68
2019-05-11T03:31:05.719Z,12.76
2019-05-11T03:36:08.179Z,12.73
2019-05-11T03:41:10.665Z,12.80
2019-05-11T03:46:13.122Z,12.70
2019-05-11T03:51:15.585Z,12.83
2019-05-11T03:56:18.040Z,12.86
2019-05-11T04:01:20.636Z,12.83
2019-05-11T04:06:23.122Z,12.86
2019-05-11T04:11:25.601Z,13.10
2019-05-11T04:16:28.055Z,13.14
2019-05-11T04:21:30.634Z,13.24
2019-05-11T04:26:33.092Z,13.33
2019-05-11T04:31:35.560Z,13.36
2019-05-11T04:36:38.028Z,13.40
2019-05-11T04:41:40.509Z,13.62
2019-05-11T04:46:42.971Z,13.73
2019-05-11T04:51:45.409Z,13.96
2019-05-11T04:56:47.869Z,14.12
2019-05-11T05:01:50.349Z,14.15
2019-05-11T05:06:59.903Z,14.36
2019-05-11T05:11:55.265Z,14.80
2019-05-11T05:16:57.735Z,14.98
2019-05-11T05:22:00.198Z,14.93
2019-05-11T05:27:02.665Z,15.06
2019-05-11T05:32:05.125Z,15.02
2019-05-11T05:37:07.578Z,14.90
2019-05-11T05:42:10.123Z,15.25
2019-05-11T05:47:12.591Z,15.15
2019-05-11T05:52:15.045Z,15.32
2019-05-11T05:57:17.503Z,15.86
2019-05-11T06:02:20.066Z,15.65
2019-05-11T06:07:22.556Z,15.70
2019-05-11T06:12:25.005Z,15.96
2019-05-11T06:17:27.478Z,15.90
2019-05-11T06:22:29.950Z,16.24
2019-05-11T06:27:32.419Z,18.57
2019-05-11T06:32:34.885Z,18.87
2019-05-11T06:37:37.428Z,17.22
2019-05-11T06:42:39.876Z,17.63
2019-05-11T06:47:42.365Z,17.81
2019-05-11T06:52:44.822Z,17.25
2019-05-11T06:57:47.281Z,18.03
2019-05-11T07:02:49.750Z,20.23
2019-05-11T07:07:52.213Z,20.34
2019-05-11T07:12:54.701Z,20.12
2019-05-11T07:17:57.180Z,19.66
2019-05-11T07:22:59.696Z,19.18
2019-05-11T07:28:02.421Z,18.79
2019-05-11T07:33:04.650Z,19.39
2019-05-11T07:38:08.346Z,21.35
2019-05-11T07:43:10.081Z,20.84
2019-05-11T07:48:12.277Z,19.85
2019-05-11T07:53:14.660Z,19.65
2019-05-11T07:58:20.234Z,19.26
2019-05-11T08:03:19.575Z,18.94
2019-05-11T08:08:25.087Z,18.13
2019-05-11T08:13:24.526Z,17.78
2019-05-11T08:18:28.234Z,17.73
2019-05-11T08:23:29.476Z,18.01
2019-05-11T08:28:31.912Z,19.83
2019-05-11T08:33:34.398Z,29.49
2019-05-11T08:38:37.801Z,41.86
2019-05-11T08:43:39.381Z,47.30
2019-05-11T08:48:41.844Z,33.51
2019-05-11T08:53:44.323Z,26.39
2019-05-11T08:58:49.042Z,22.86
2019-05-11T09:03:49.357Z,21.09
2019-05-11T09:08:51.832Z,21.10
2019-05-11T09:13:54.298Z,23.55
2019-05-11T09:18:58.119Z,32.86
2019-05-11T09:23:59.293Z,28.49
2019-05-11T09:29:01.815Z,24.28
2019-05-11T09:34:04.296Z,22.20
2019-05-11T09:39:08.379Z,21.07
2019-05-11T09:44:09.268Z,22.02
2019-05-11T09:49:12.037Z,23.54
2019-05-11T09:54:14.410Z,23.55
2019-05-11T09:59:17.894Z,21.59
2019-05-11T10:04:19.346Z,20.08
2019-05-11T10:09:21.816Z,20.89
2019-05-11T10:14:24.275Z,21.78
2019-05-11T10:19:28.445Z,26.51
2019-05-11T10:24:29.213Z,26.56
2019-05-11T10:29:33.871Z,24.77
2019-05-11T10:34:34.251Z,26.42
2019-05-11T10:39:38.291Z,28.09
2019-05-11T10:44:39.178Z,29.20
2019-05-11T10:49:41.642Z,27.16
2019-05-11T10:54:44.108Z,27.99
2019-05-11T10:59:48.723Z,29.86
2019-05-11T11:04:49.033Z,30.74
2019-05-11T11:09:51.490Z,28.50
2019-05-11T11:14:54.037Z,26.29
2019-05-11T11:19:58.079Z,26.19
2019-05-11T11:24:59.140Z,32.54
2019-05-11T11:30:01.432Z,33.07
2019-05-11T11:35:03.915Z,28.54
2019-05-11T11:40:08.369Z,23.87
2019-05-11T11:45:08.850Z,33.10
2019-05-11T11:50:11.326Z,46.72
2019-05-11T11:55:13.813Z,47.03
2019-05-11T12:00:18.283Z,49.41
2019-05-11T12:05:18.745Z,47.31
2019-05-11T12:10:21.246Z,34.58
2019-05-11T12:15:23.716Z,32.66
2019-05-11T12:20:28.487Z,34.87
2019-05-11T12:25:28.677Z,36.75
2019-05-11T12:30:31.133Z,29.77
2019-05-11T12:35:33.617Z,24.62
2019-05-11T12:40:36.081Z,21.90
2019-05-11T12:45:38.564Z,20.58
2019-05-11T12:50:41.048Z,19.86
2019-05-11T12:55:43.536Z,19.81
2019-05-11T13:00:47.936Z,22.22
2019-05-11T13:05:48.671Z,21.94
2019-05-11T13:10:50.972Z,23.31
2019-05-11T13:15:53.473Z,23.27
2019-05-11T13:20:55.931Z,23.81
2019-05-11T13:25:58.667Z,21.43
2019-05-11T13:31:00.900Z,20.22
2019-05-11T13:36:03.388Z,19.77
2019-05-11T13:41:07.834Z,19.86
2019-05-11T13:46:08.770Z,19.72
2019-05-11T13:51:10.816Z,19.40
2019-05-11T13:56:13.284Z,19.01
2019-05-11T14:01:18.201Z,19.45
2019-05-11T14:06:18.827Z,19.91
2019-05-11T14:11:21.172Z,18.80
2019-05-11T14:16:23.645Z,20.44
2019-05-11T14:21:27.963Z,21.96
2019-05-11T14:26:28.598Z,19.75
2019-05-11T14:31:31.047Z,18.93
2019-05-11T14:36:33.540Z,18.55
2019-05-11T14:41:38.022Z,17.74
2019-05-11T14:46:38.665Z,17.00
2019-05-11T14:51:40.986Z,16.57
2019-05-11T14:56:43.459Z,16.49
2019-05-11T15:01:48.780Z,16.56
2019-05-11T15:06:49.125Z,16.93
2019-05-11T15:11:52.670Z,17.44
2019-05-11T15:16:53.634Z,17.89
2019-05-11T15:21:58.024Z,18.56
2019-05-11T15:26:58.579Z,18.16
2019-05-11T15:32:01.059Z,18.32
2019-05-11T15:37:03.526Z,17.81
2019-05-11T15:42:13.258Z,17.41
2019-05-11T15:47:08.511Z,16.67
2019-05-11T15:52:10.988Z,16.36
2019-05-11T15:57:13.464Z,16.35
2019-05-11T16:02:17.896Z,16.20
2019-05-11T16:07:18.883Z,16.45
2019-05-11T16:12:20.890Z,16.46
2019-05-11T16:17:23.365Z,16.82
2019-05-11T16:22:27.853Z,16.81
2019-05-11T16:27:28.543Z,16.82
2019-05-11T16:32:30.810Z,16.30
2019-05-11T16:37:33.277Z,15.80
2019-05-11T16:42:35.741Z,15.49
2019-05-11T16:47:39.088Z,15.17
2019-05-11T16:52:40.726Z,14.97
2019-05-11T16:57:43.213Z,14.62
2019-05-11T17:02:45.703Z,14.53
2019-05-11T17:07:48.498Z,14.50
2019-05-11T17:12:50.619Z,14.21
2019-05-11T17:17:53.078Z,14.02
2019-05-11T17:22:55.548Z,13.98
2019-05-11T17:27:58.820Z,13.81
2019-05-11T17:33:00.483Z,13.82
2019-05-11T17:38:02.942Z,13.71
2019-05-11T17:43:05.437Z,13.75
2019-05-11T17:48:08.515Z,13.56
2019-05-11T17:53:10.347Z,13.59
2019-05-11T17:58:12.816Z,13.56
2019-05-11T18:03:15.291Z,13.60
2019-05-11T18:08:18.775Z,13.50
2019-05-11T18:13:20.221Z,13.39
2019-05-11T18:18:24.165Z,13.49
2019-05-11T18:23:25.165Z,13.42
2019-05-11T18:28:29.019Z,13.47
2019-05-11T18:33:30.123Z,13.32
2019-05-11T18:38:32.609Z,13.34
2019-05-11T18:43:35.082Z,13.34
2019-05-11T18:48:38.116Z,13.19
2019-05-11T18:53:40.020Z,13.02
2019-05-11T18:58:42.511Z,12.97
2019-05-11T19:03:44.996Z,12.92
2019-05-11T19:08:47.924Z,12.87
2019-05-11T19:13:49.996Z,12.86
2019-05-11T19:18:52.468Z,12.79
2019-05-11T19:23:54.962Z,12.70
2019-05-11T19:28:57.845Z,12.62
2019-05-11T19:33:59.918Z,12.44
2019-05-11T19:39:02.394Z,12.45
2019-05-11T19:44:04.883Z,12.52
2019-05-11T19:49:08.596Z,12.57
2019-05-11T19:54:09.843Z,12.56
2019-05-11T19:59:12.428Z,12.71
2019-05-11T20:04:14.923Z,12.70
2019-05-11T20:09:19.115Z,12.67
2019-05-11T20:14:19.876Z,12.59
2019-05-11T20:19:22.331Z,12.47
2019-05-11T20:24:25.256Z,12.43
2019-05-11T20:29:27.772Z,12.35
2019-05-11T20:34:29.844Z,12.42
2019-05-11T20:39:32.204Z,12.39
2019-05-11T20:44:34.675Z,12.27
2019-05-11T20:49:38.652Z,12.39
2019-05-11T20:54:39.641Z,12.39
2019-05-11T20:59:44.204Z,12.24
2019-05-11T21:04:49.014Z,12.32
2019-05-11T21:09:49.130Z,12.07
2019-05-11T21:14:51.604Z,11.89
2019-05-11T21:19:54.070Z,12.07
2019-05-11T21:24:58.208Z,12.22
2019-05-11T21:29:59.024Z,12.16
2019-05-11T21:35:01.528Z,12.06
2019-05-11T21:40:03.989Z,12.27
2019-05-11T21:45:08.407Z,12.29
2019-05-11T21:50:08.953Z,12.29
2019-05-11T21:55:11.433Z,12.26
2019-05-11T22:00:13.908Z,12.25
2019-05-11T22:05:18.318Z,12.26
2019-05-11T22:10:18.868Z,11.94
2019-05-11T22:15:21.399Z,11.88
2019-05-11T22:20:23.863Z,12.14
2019-05-11T22:25:28.549Z,12.13
2019-05-11T22:30:28.793Z,12.02
2019-05-11T22:35:31.253Z,11.84
2019-05-11T22:40:33.739Z,11.62
2019-05-11T22:45:38.268Z,11.69
2019-05-11T22:50:38.686Z,11.68
2019-05-11T22:55:41.147Z,11.23
2019-05-11T23:00:43.636Z,10.88
2019-05-11T23:05:48.765Z,10.73
2019-05-11T23:10:51.250Z,10.72
2019-05-11T23:15:53.727Z,10.41
2019-05-11T23:20:58.215Z,10.41
2019-05-11T23:25:58.715Z,10.23
2019-05-11T23:31:01.126Z,10.02
2019-05-11T23:36:03.605Z,9.95
2019-05-11T23:41:08.225Z,9.83
2019-05-11T23:46:08.538Z,9.85
2019-05-11T23:51:11.017Z,9.89
2019-05-11T23:56:13.478Z,9.81
